createdAt,value
2022-10-18T00:00:11.762Z,52.86
2022-10-18T00:01:11.771Z,48.04
2022-10-18T00:02:11.763Z,49.38
2022-10-18T00:03:11.769Z,48.94
2022-10-18T00:04:11.713Z,57.23
2022-10-18T00:05:11.770Z,49.19
2022-10-18T00:06:11.702Z,53.46
2022-10-18T00:07:11.770Z,50.07
2022-10-18T00:08:11.718Z,51.09
2022-10-18T00:09:11.602Z,47.41
2022-10-18T00:10:11.597Z,51.45
2022-10-18T00:11:11.649Z,49.22
2022-10-18T00:12:11.574Z,50.06
2022-10-18T00:13:11.575Z,50.37
2022-10-18T00:14:11.690Z,50.54
2022-10-18T00:15:11.629Z,49.65
2022-10-18T00:16:11.694Z,56.53
2022-10-18T00:17:11.633Z,51.89
2022-10-18T00:18:11.604Z,49.44
2022-10-18T00:19:11.590Z,53.03
2022-10-18T00:20:11.601Z,54.35
2022-10-18T00:21:11.609Z,52.12
2022-10-18T00:22:11.609Z,54.10
2022-10-18T00:23:11.650Z,50.16
2022-10-18T00:24:11.572Z,50.50
2022-10-18T00:25:11.551Z,52.91
2022-10-18T00:26:11.630Z,54.01
2022-10-18T00:27:11.492Z,52.88
2022-10-18T00:28:11.458Z,56.19
2022-10-18T00:29:11.431Z,53.38
2022-10-18T00:30:11.437Z,52.82
2022-10-18T00:31:11.444Z,53.50
2022-10-18T00:32:11.442Z,54.26
2022-10-18T00:33:11.428Z,54.45
2022-10-18T00:34:11.390Z,53.39
2022-10-18T00:35:11.400Z,52.62
2022-10-18T00:36:11.388Z,55.01
2022-10-18T00:37:11.386Z,53.39
2022-10-18T00:38:11.489Z,51.96
2022-10-18T00:39:11.469Z,57.14
2022-10-18T00:40:11.448Z,54.04
2022-10-18T00:41:11.429Z,47.89
2022-10-18T00:42:11.447Z,50.46
2022-10-18T00:43:11.461Z,53.98
2022-10-18T00:44:11.447Z,53.46
2022-10-18T00:45:11.395Z,49.07
2022-10-18T00:46:11.431Z,51.30
2022-10-18T00:47:11.421Z,53.90
2022-10-18T00:48:11.410Z,55.39
2022-10-18T00:49:11.504Z,56.31
2022-10-18T00:50:11.273Z,52.44
2022-10-18T00:51:11.277Z,51.05
2022-10-18T00:52:11.394Z,50.52
2022-10-18T00:53:11.261Z,53.69
2022-10-18T00:54:11.282Z,51.88
2022-10-18T00:55:11.282Z,52.48
2022-10-18T00:56:11.228Z,50.77
2022-10-18T00:57:11.336Z,51.88
2022-10-18T00:58:11.255Z,48.12
2022-10-18T00:59:11.354Z,55.87
2022-10-18T01:00:11.345Z,56.45
2022-10-18T01:01:11.365Z,55.70
2022-10-18T01:02:11.379Z,50.09
2022-10-18T01:03:11.292Z,55.99
2022-10-18T01:04:11.300Z,51.44
2022-10-18T01:05:11.265Z,49.27
2022-10-18T01:06:11.331Z,48.95
2022-10-18T01:07:11.259Z,51.34
2022-10-18T01:08:11.256Z,55.81
2022-10-18T01:09:11.256Z,55.15
2022-10-18T01:10:11.180Z,51.00
2022-10-18T01:11:11.391Z,49.39
2022-10-18T01:12:11.140Z,49.66
2022-10-18T01:13:11.235Z,48.58
2022-10-18T01:14:11.262Z,52.73
2022-10-18T01:15:11.190Z,55.33
2022-10-18T01:16:11.146Z,50.38
2022-10-18T01:17:11.202Z,49.31
2022-10-18T01:18:12.218Z,48.58
2022-10-18T01:19:11.160Z,52.65
2022-10-18T01:20:11.157Z,48.53
2022-10-18T01:21:11.166Z,48.81
2022-10-18T01:22:11.194Z,52.86
2022-10-18T01:23:11.111Z,54.40
2022-10-18T01:24:11.126Z,53.38
2022-10-18T01:25:11.166Z,54.51
2022-10-18T01:26:11.130Z,59.21
2022-10-18T01:27:11.009Z,57.47
2022-10-18T01:28:11.052Z,55.69
2022-10-18T01:29:11.074Z,54.32
2022-10-18T01:30:10.994Z,57.18
2022-10-18T01:31:10.954Z,57.57
2022-10-18T01:32:10.950Z,56.35
2022-10-18T01:33:11.006Z,55.07
2022-10-18T01:34:10.952Z,51.92
2022-10-18T01:35:10.966Z,51.40
2022-10-18T01:36:11.026Z,48.12
2022-10-18T01:37:11.097Z,55.98
2022-10-18T01:38:11.006Z,51.68
2022-10-18T01:39:11.063Z,48.12
2022-10-18T01:40:11.024Z,56.71
2022-10-18T01:41:14.799Z,53.49
2022-10-18T01:42:11.017Z,56.64
2022-10-18T01:43:10.987Z,56.06
2022-10-18T01:44:11.089Z,55.59
2022-10-18T01:45:10.983Z,47.72
2022-10-18T01:46:10.973Z,49.44
2022-10-18T01:47:10.972Z,58.15
2022-10-18T01:48:10.937Z,51.50
2022-10-18T01:49:10.866Z,50.97
2022-10-18T01:50:10.873Z,46.74
2022-10-18T01:51:10.932Z,51.32
2022-10-18T01:52:10.872Z,56.32
2022-10-18T01:53:10.831Z,51.43
2022-10-18T01:54:10.834Z,55.84
2022-10-18T01:55:10.846Z,51.36
2022-10-18T01:56:10.791Z,47.49
2022-10-18T01:57:10.888Z,55.93
2022-10-18T01:58:10.756Z,49.85
2022-10-18T01:59:10.878Z,51.63
2022-10-18T02:00:10.878Z,53.23
2022-10-18T02:02:11.914Z,56.11
2022-10-18T02:03:10.811Z,54.60
2022-10-18T02:04:10.832Z,56.76
2022-10-18T02:05:10.855Z,52.19
2022-10-18T02:06:10.826Z,57.85
2022-10-18T02:07:10.799Z,57.11
2022-10-18T02:08:22.966Z,56.26
2022-10-18T02:09:12.705Z,58.52
2022-10-18T02:10:10.849Z,58.55
2022-10-18T02:11:10.693Z,56.91
2022-10-18T02:12:11.033Z,55.69
2022-10-18T02:13:10.667Z,54.67
2022-10-18T02:14:10.673Z,55.27
2022-10-18T02:15:11.674Z,57.51
2022-10-18T02:16:10.657Z,52.47
2022-10-18T02:17:10.811Z,53.10
2022-10-18T02:18:10.707Z,51.51
2022-10-18T02:19:10.845Z,52.05
2022-10-18T02:20:10.695Z,54.56
2022-10-18T02:21:10.712Z,53.57
2022-10-18T02:22:10.675Z,48.76
2022-10-18T02:23:10.715Z,50.16
2022-10-18T02:24:10.695Z,52.34
2022-10-18T02:25:10.672Z,52.63
2022-10-18T02:26:10.667Z,51.63
2022-10-18T02:27:10.638Z,54.71
2022-10-18T02:28:10.716Z,51.18
2022-10-18T02:29:10.649Z,55.58
2022-10-18T02:30:10.554Z,53.74
2022-10-18T02:31:10.510Z,54.58
2022-10-18T02:32:10.675Z,56.48
2022-10-18T02:33:10.500Z,53.30
2022-10-18T02:34:10.644Z,53.41
2022-10-18T02:35:10.634Z,54.06
2022-10-18T02:36:10.609Z,51.42
2022-10-18T02:37:10.595Z,51.63
2022-10-18T02:38:10.599Z,53.51
2022-10-18T02:39:10.609Z,59.17
2022-10-18T02:40:10.656Z,53.66
2022-10-18T02:41:10.573Z,53.50
2022-10-18T02:42:10.620Z,52.58
2022-10-18T02:43:10.564Z,51.09
2022-10-18T02:44:10.522Z,48.72
2022-10-18T02:45:10.565Z,54.60
2022-10-18T02:46:10.464Z,55.29
2022-10-18T02:47:10.454Z,57.90
2022-10-18T02:48:10.413Z,59.16
2022-10-18T02:49:10.505Z,55.15
2022-10-18T02:50:10.434Z,55.42
2022-10-18T02:51:10.393Z,55.98
2022-10-18T02:52:10.481Z,53.21
2022-10-18T02:53:10.440Z,54.06
2022-10-18T02:54:10.435Z,55.75
2022-10-18T02:55:10.506Z,57.06
2022-10-18T02:56:10.428Z,52.62
2022-10-18T02:57:10.443Z,52.85
2022-10-18T02:58:10.358Z,55.51
2022-10-18T02:59:10.470Z,53.51
2022-10-18T03:00:10.397Z,60.06
2022-10-18T03:01:10.672Z,54.66
2022-10-18T03:02:10.422Z,52.26
2022-10-18T03:03:10.473Z,53.56
2022-10-18T03:04:10.420Z,53.96
2022-10-18T03:05:10.393Z,60.53
2022-10-18T03:06:10.324Z,59.71
2022-10-18T03:07:10.253Z,60.06
2022-10-18T03:08:10.227Z,63.01
2022-10-18T03:09:10.252Z,59.39
2022-10-18T03:10:11.274Z,58.74
2022-10-18T03:11:10.238Z,56.71
2022-10-18T03:12:10.269Z,59.78
2022-10-18T03:13:10.242Z,59.26
2022-10-18T03:14:10.276Z,59.07
2022-10-18T03:15:10.298Z,61.85
2022-10-18T03:16:10.308Z,56.65
2022-10-18T03:17:10.590Z,57.98
2022-10-18T03:18:10.266Z,58.36
2022-10-18T03:19:10.260Z,57.77
2022-10-18T03:20:10.281Z,57.79
2022-10-18T03:21:10.282Z,57.09
2022-10-18T03:22:10.318Z,59.63
2022-10-18T03:23:11.274Z,59.66
2022-10-18T03:24:10.331Z,57.32
2022-10-18T03:25:10.227Z,58.99
2022-10-18T03:26:10.221Z,57.92
2022-10-18T03:27:10.216Z,58.83
2022-10-18T03:28:10.230Z,58.38
2022-10-18T03:29:10.244Z,59.64
2022-10-18T03:30:10.216Z,58.96
2022-10-18T03:31:10.104Z,56.04
2022-10-18T03:32:10.090Z,59.78
2022-10-18T03:33:10.235Z,57.07
2022-10-18T03:34:10.219Z,57.18
2022-10-18T03:35:10.162Z,57.05
2022-10-18T03:36:10.179Z,56.47
2022-10-18T03:37:10.120Z,59.10
2022-10-18T03:38:10.131Z,60.63
2022-10-18T03:39:10.184Z,60.37
2022-10-18T03:40:10.116Z,58.99
2022-10-18T03:41:10.133Z,57.69
2022-10-18T03:42:10.133Z,59.57
2022-10-18T03:43:10.183Z,61.63
2022-10-18T03:44:10.128Z,60.59
2022-10-18T03:45:10.179Z,61.24
2022-10-18T03:46:10.094Z,61.49
2022-10-18T03:47:10.165Z,61.41
2022-10-18T03:48:10.047Z,62.75
2022-10-18T03:49:10.066Z,60.75
2022-10-18T03:50:10.043Z,63.41
2022-10-18T03:51:09.978Z,63.59
2022-10-18T03:52:09.943Z,62.08
2022-10-18T03:53:09.901Z,61.34
2022-10-18T03:54:09.941Z,62.56
2022-10-18T03:55:09.944Z,62.85
2022-10-18T03:56:10.035Z,62.61
2022-10-18T03:57:09.978Z,62.60
2022-10-18T03:58:09.940Z,62.99
2022-10-18T03:59:10.000Z,61.83
2022-10-18T04:00:09.992Z,62.94
2022-10-18T04:01:10.148Z,62.73
2022-10-18T04:02:09.998Z,62.18
2022-10-18T04:03:10.001Z,63.34
2022-10-18T04:04:10.007Z,62.83
2022-10-18T04:05:09.974Z,63.68
2022-10-18T04:06:10.067Z,63.03
2022-10-18T04:07:09.996Z,64.73
2022-10-18T04:08:09.991Z,64.82
2022-10-18T04:09:10.356Z,63.44
2022-10-18T04:10:09.828Z,63.86
2022-10-18T04:11:09.912Z,61.96
2022-10-18T04:12:09.834Z,63.92
2022-10-18T04:13:09.832Z,61.58
2022-10-18T04:14:09.898Z,61.23
2022-10-18T04:15:09.872Z,60.74
2022-10-18T04:16:09.883Z,62.33
2022-10-18T04:17:09.868Z,61.28
2022-10-18T04:18:09.848Z,62.23
2022-10-18T04:19:09.826Z,62.89
2022-10-18T04:20:09.812Z,62.37
2022-10-18T04:21:09.818Z,62.02
2022-10-18T04:22:09.789Z,60.86
2022-10-18T04:23:09.871Z,61.94
2022-10-18T04:24:09.784Z,59.97
2022-10-18T04:25:09.743Z,63.34
2022-10-18T04:26:09.690Z,62.24
2022-10-18T04:27:09.833Z,60.61
2022-10-18T04:28:09.758Z,61.10
2022-10-18T04:29:09.715Z,61.88
2022-10-18T04:30:09.787Z,59.76
2022-10-18T04:31:09.775Z,61.27
2022-10-18T04:32:09.759Z,62.32
2022-10-18T04:33:09.702Z,61.94
2022-10-18T04:34:09.718Z,62.18
2022-10-18T04:35:09.741Z,63.39
2022-10-18T04:36:09.718Z,64.49
2022-10-18T04:37:09.718Z,63.54
2022-10-18T04:38:09.764Z,65.06
2022-10-18T04:39:09.735Z,65.38
2022-10-18T04:40:09.687Z,65.43
2022-10-18T04:41:09.724Z,63.67
2022-10-18T04:42:09.617Z,63.54
2022-10-18T04:43:09.546Z,63.06
2022-10-18T04:44:09.541Z,63.52
2022-10-18T04:45:09.654Z,63.94
2022-10-18T04:46:09.636Z,63.73
2022-10-18T04:47:09.604Z,64.50
2022-10-18T04:48:09.634Z,64.15
2022-10-18T04:49:09.595Z,63.04
2022-10-18T04:50:09.606Z,64.66
2022-10-18T04:51:09.568Z,64.02
2022-10-18T04:52:09.573Z,63.32
2022-10-18T04:53:09.659Z,63.84
2022-10-18T04:54:09.550Z,64.15
2022-10-18T04:55:09.566Z,63.80
2022-10-18T04:56:09.500Z,64.60
2022-10-18T04:57:09.461Z,63.00
2022-10-18T04:58:09.462Z,61.19
2022-10-18T04:59:09.501Z,63.42
2022-10-18T05:00:09.412Z,62.32
2022-10-18T05:01:09.444Z,61.67
2022-10-18T05:02:09.406Z,61.12
2022-10-18T05:03:09.390Z,63.01
2022-10-18T05:04:09.405Z,63.59
2022-10-18T05:05:11.764Z,64.09
2022-10-18T05:06:09.367Z,62.43
2022-10-18T05:07:09.611Z,63.46
2022-10-18T05:08:10.496Z,63.01
2022-10-18T05:09:09.481Z,62.22
2022-10-18T05:10:09.508Z,63.12
2022-10-18T05:12:09.483Z,63.05
2022-10-18T05:13:09.414Z,63.79
2022-10-18T05:14:09.447Z,62.59
2022-10-18T05:15:09.389Z,62.47
2022-10-18T05:16:09.383Z,62.49
2022-10-18T05:17:09.387Z,61.77
2022-10-18T05:18:09.443Z,62.09
2022-10-18T05:19:09.275Z,64.04
2022-10-18T05:20:09.336Z,64.21
2022-10-18T05:21:09.276Z,62.47
2022-10-18T05:22:09.336Z,63.40
2022-10-18T05:23:09.689Z,64.40
2022-10-18T05:24:09.366Z,63.20
2022-10-18T05:25:09.408Z,63.33
2022-10-18T05:26:09.325Z,61.82
2022-10-18T05:27:09.309Z,61.69
2022-10-18T05:28:34.722Z,62.56
2022-10-18T05:29:11.370Z,63.21
2022-10-18T05:30:09.267Z,62.10
2022-10-18T05:31:09.302Z,62.94
2022-10-18T05:32:10.291Z,63.34
2022-10-18T05:33:09.271Z,62.68
2022-10-18T05:34:09.272Z,63.15
2022-10-18T05:35:09.180Z,63.23
2022-10-18T05:36:09.166Z,63.28
2022-10-18T05:37:09.256Z,64.56
2022-10-18T05:38:09.155Z,63.09
2022-10-18T05:39:09.223Z,63.24
2022-10-18T05:40:16.632Z,65.41
2022-10-18T05:41:09.129Z,63.37
2022-10-18T05:42:09.251Z,63.62
2022-10-18T05:43:09.231Z,63.24
2022-10-18T05:44:09.219Z,63.64
2022-10-18T05:45:09.234Z,63.05
2022-10-18T05:46:14.664Z,63.70
2022-10-18T05:47:11.195Z,62.86
2022-10-18T05:48:09.153Z,64.08
2022-10-18T05:49:09.157Z,65.78
2022-10-18T05:50:09.150Z,63.85
2022-10-18T05:51:09.181Z,64.16
2022-10-18T05:52:09.141Z,64.56
2022-10-18T05:53:12.804Z,65.58
2022-10-18T05:54:11.052Z,64.52
2022-10-18T05:55:09.131Z,63.17
2022-10-18T05:56:09.182Z,63.84
2022-10-18T05:57:09.093Z,63.25
2022-10-18T05:58:09.015Z,63.94
2022-10-18T05:59:09.084Z,65.58
2022-10-18T06:00:09.106Z,63.85
2022-10-18T06:01:09.074Z,64.85
2022-10-18T06:02:10.159Z,64.29
2022-10-18T06:03:09.062Z,64.79
2022-10-18T06:04:09.087Z,66.26
2022-10-18T06:05:09.079Z,65.63
2022-10-18T06:06:09.012Z,62.65
2022-10-18T06:07:09.121Z,63.40
2022-10-18T06:08:10.319Z,62.76
2022-10-18T06:09:08.915Z,64.12
2022-10-18T06:10:08.994Z,64.36
2022-10-18T06:11:08.902Z,62.57
2022-10-18T06:12:08.888Z,62.25
2022-10-18T06:13:08.894Z,64.81
2022-10-18T06:14:08.859Z,64.96
2022-10-18T06:15:08.846Z,65.84
2022-10-18T06:16:08.867Z,65.12
2022-10-18T06:17:08.946Z,63.98
2022-10-18T06:18:09.007Z,65.07
2022-10-18T06:19:09.018Z,66.84
2022-10-18T06:20:08.969Z,63.44
2022-10-18T06:21:08.950Z,65.83
2022-10-18T06:22:08.943Z,66.38
2022-10-18T06:23:08.928Z,64.19
2022-10-18T06:24:09.229Z,65.45
2022-10-18T06:25:08.902Z,63.69
2022-10-18T06:26:08.974Z,64.58
2022-10-18T06:27:08.910Z,63.13
2022-10-18T06:28:10.225Z,66.54
2022-10-18T06:29:08.921Z,64.62
2022-10-18T06:30:08.835Z,61.34
2022-10-18T06:31:08.754Z,64.54
2022-10-18T06:32:08.744Z,65.19
2022-10-18T06:33:08.728Z,64.35
2022-10-18T06:34:08.725Z,63.05
2022-10-18T06:35:08.774Z,64.05
2022-10-18T06:36:08.889Z,64.66
2022-10-18T06:37:08.711Z,63.64
2022-10-18T06:38:08.786Z,64.28
2022-10-18T06:39:08.788Z,65.54
2022-10-18T06:40:08.845Z,64.58
2022-10-18T06:41:08.788Z,62.83
2022-10-18T06:42:08.777Z,63.54
2022-10-18T06:43:20.756Z,63.67
2022-10-18T06:44:10.756Z,63.41
2022-10-18T06:45:08.736Z,63.86
2022-10-18T06:46:08.745Z,62.62
2022-10-18T06:47:08.733Z,62.83
2022-10-18T06:48:08.762Z,63.02
2022-10-18T06:49:08.760Z,62.97
2022-10-18T06:50:08.602Z,61.54
2022-10-18T06:51:09.669Z,61.68
2022-10-18T06:52:08.678Z,63.54
2022-10-18T06:53:08.744Z,60.41
2022-10-18T06:54:17.595Z,62.87
2022-10-18T06:55:10.603Z,62.70
2022-10-18T06:56:08.601Z,62.17
2022-10-18T06:57:08.651Z,64.16
2022-10-18T06:58:09.541Z,62.96
2022-10-18T06:59:09.623Z,61.71
2022-10-18T07:00:08.669Z,61.10
2022-10-18T07:01:08.811Z,60.91
2022-10-18T07:02:08.693Z,62.15
2022-10-18T07:03:08.645Z,59.93
2022-10-18T07:04:08.631Z,60.32
2022-10-18T07:05:08.596Z,61.22
2022-10-18T07:06:09.649Z,60.66
2022-10-18T07:07:08.574Z,61.46
2022-10-18T07:08:08.605Z,59.82
2022-10-18T07:09:08.572Z,62.35
2022-10-18T07:10:12.617Z,59.80
2022-10-18T07:11:08.585Z,61.40
2022-10-18T07:12:08.502Z,58.39
2022-10-18T07:13:30.793Z,62.89
2022-10-18T07:14:15.377Z,61.43
2022-10-18T07:15:09.664Z,61.64
2022-10-18T07:16:11.558Z,60.49
2022-10-18T07:17:08.442Z,63.02
2022-10-18T07:18:08.506Z,60.81
2022-10-18T07:19:08.522Z,61.61
2022-10-18T07:20:08.493Z,60.87
2022-10-18T07:21:08.530Z,59.25
2022-10-18T07:22:08.512Z,56.86
2022-10-18T07:23:08.501Z,59.67
2022-10-18T07:24:08.466Z,59.45
2022-10-18T07:25:08.487Z,62.90
2022-10-18T07:26:08.460Z,60.98
2022-10-18T07:27:08.438Z,62.39
2022-10-18T07:28:08.579Z,61.14
2022-10-18T07:29:08.515Z,62.85
2022-10-18T07:30:08.509Z,62.62
2022-10-18T07:31:08.319Z,62.29
2022-10-18T07:32:08.397Z,60.98
2022-10-18T07:33:08.478Z,62.78
2022-10-18T07:34:08.395Z,61.66
2022-10-18T07:35:08.521Z,62.91
2022-10-18T07:36:08.368Z,60.58
2022-10-18T07:37:08.428Z,63.46
2022-10-18T07:38:08.348Z,62.05
2022-10-18T07:39:08.394Z,62.58
2022-10-18T07:40:08.360Z,61.46
2022-10-18T07:41:08.274Z,61.48
2022-10-18T07:42:08.353Z,63.63
2022-10-18T07:43:10.283Z,62.83
2022-10-18T07:44:09.387Z,61.81
2022-10-18T07:45:08.238Z,59.24
2022-10-18T07:46:08.324Z,60.15
2022-10-18T07:47:08.220Z,64.56
2022-10-18T07:48:08.202Z,62.31
2022-10-18T07:49:08.229Z,62.76
2022-10-18T07:50:08.197Z,64.08
2022-10-18T07:51:08.193Z,62.26
2022-10-18T07:52:08.174Z,61.69
2022-10-18T07:53:08.175Z,62.34
2022-10-18T07:54:08.205Z,62.78
2022-10-18T07:55:08.125Z,59.96
2022-10-18T07:56:09.618Z,60.51
2022-10-18T07:57:08.147Z,60.17
2022-10-18T07:58:08.306Z,57.93
2022-10-18T07:59:08.214Z,60.03
2022-10-18T08:00:08.408Z,59.86
2022-10-18T08:01:08.268Z,61.07
2022-10-18T08:02:08.226Z,62.38
2022-10-18T08:03:08.205Z,61.15
2022-10-18T08:04:11.606Z,62.61
2022-10-18T08:05:09.212Z,61.56
2022-10-18T08:06:08.144Z,60.86
2022-10-18T08:07:08.140Z,57.50
2022-10-18T08:08:08.298Z,61.16
2022-10-18T08:09:08.056Z,63.10
2022-10-18T08:10:08.033Z,61.52
2022-10-18T08:11:09.204Z,61.58
2022-10-18T08:12:08.046Z,60.26
2022-10-18T08:13:11.261Z,61.15
2022-10-18T08:14:08.161Z,61.15
2022-10-18T08:15:08.185Z,59.37
2022-10-18T08:16:08.142Z,60.86
2022-10-18T08:17:08.124Z,59.57
2022-10-18T08:18:08.058Z,62.44
2022-10-18T08:19:08.115Z,58.15
2022-10-18T08:20:12.389Z,58.16
2022-10-18T08:21:10.030Z,61.65
2022-10-18T08:22:08.060Z,58.02
2022-10-18T08:23:08.048Z,61.32
2022-10-18T08:24:08.011Z,59.01
2022-10-18T08:25:07.932Z,62.08
2022-10-18T08:26:08.019Z,60.07
2022-10-18T08:27:08.046Z,60.89
2022-10-18T08:28:08.010Z,60.64
2022-10-18T08:29:24.147Z,61.58
2022-10-18T08:30:09.915Z,60.97
2022-10-18T08:31:07.996Z,60.55
2022-10-18T08:32:08.107Z,61.98
2022-10-18T08:33:08.036Z,58.79
2022-10-18T08:34:07.967Z,59.61
2022-10-18T08:35:08.671Z,61.09
2022-10-18T08:36:08.013Z,61.18
2022-10-18T08:37:07.968Z,62.12
2022-10-18T08:38:07.979Z,60.50
2022-10-18T08:39:07.834Z,60.35
2022-10-18T08:40:07.833Z,60.81
2022-10-18T08:41:07.888Z,58.68
2022-10-18T08:42:07.816Z,61.94
2022-10-18T08:43:07.957Z,59.41
2022-10-18T08:44:07.916Z,59.99
2022-10-18T08:45:12.898Z,62.44
2022-10-18T08:46:09.826Z,65.01
2022-10-18T08:47:07.875Z,64.92
2022-10-18T08:48:07.874Z,60.48
2022-10-18T08:49:07.880Z,60.91
2022-10-18T08:50:08.916Z,60.79
2022-10-18T08:51:08.834Z,60.84
2022-10-18T08:52:07.841Z,61.99
2022-10-18T08:53:07.822Z,62.72
2022-10-18T08:54:07.932Z,62.22
2022-10-18T08:55:07.825Z,61.01
2022-10-18T08:56:07.713Z,60.55
2022-10-18T08:57:07.696Z,62.84
2022-10-18T08:58:07.699Z,60.54
2022-10-18T08:59:07.848Z,60.51
2022-10-18T09:00:07.702Z,61.61
2022-10-18T09:01:07.788Z,61.74
2022-10-18T09:02:07.770Z,61.02
2022-10-18T09:03:07.825Z,63.86
2022-10-18T09:04:07.765Z,62.44
2022-10-18T09:05:07.895Z,62.63
2022-10-18T09:06:07.735Z,63.80
2022-10-18T09:07:07.752Z,63.07
2022-10-18T09:08:07.762Z,62.37
2022-10-18T09:09:07.701Z,59.39
2022-10-18T09:10:07.692Z,59.21
2022-10-18T09:11:07.734Z,59.70
2022-10-18T09:12:07.663Z,59.62
2022-10-18T09:13:07.579Z,57.83
2022-10-18T09:14:07.578Z,58.54
2022-10-18T09:15:07.725Z,61.17
2022-10-18T09:16:07.577Z,59.71
2022-10-18T09:17:08.326Z,59.29
2022-10-18T09:18:07.573Z,58.23
2022-10-18T09:19:07.618Z,58.61
2022-10-18T09:20:07.611Z,59.38
2022-10-18T09:21:07.640Z,59.01
2022-10-18T09:22:09.671Z,58.62
2022-10-18T09:23:07.590Z,58.73
2022-10-18T09:24:07.643Z,57.98
2022-10-18T09:25:07.591Z,60.45
2022-10-18T09:26:07.679Z,66.66
2022-10-18T09:27:07.567Z,62.61
2022-10-18T09:28:07.647Z,60.29
2022-10-18T09:29:08.745Z,61.34
2022-10-18T09:30:07.468Z,65.12
2022-10-18T09:31:07.478Z,60.98
2022-10-18T09:32:07.576Z,59.07
2022-10-18T09:33:07.440Z,59.16
2022-10-18T09:34:07.409Z,61.83
2022-10-18T09:35:07.506Z,65.13
2022-10-18T09:36:07.533Z,58.96
2022-10-18T09:37:07.625Z,61.82
2022-10-18T09:38:07.565Z,60.45
2022-10-18T09:39:07.474Z,61.04
2022-10-18T09:40:07.483Z,61.50
2022-10-18T09:41:07.464Z,61.06
2022-10-18T09:42:07.469Z,58.70
2022-10-18T09:43:07.504Z,58.49
2022-10-18T09:44:07.457Z,60.57
2022-10-18T09:45:07.348Z,61.03
2022-10-18T09:46:07.335Z,61.29
2022-10-18T09:47:07.341Z,61.87
2022-10-18T09:48:07.411Z,64.34
2022-10-18T09:49:07.317Z,61.64
2022-10-18T09:50:07.285Z,58.16
2022-10-18T09:51:07.286Z,60.61
2022-10-18T09:52:07.295Z,60.94
2022-10-18T09:53:07.301Z,59.21
2022-10-18T09:54:07.314Z,59.37
2022-10-18T09:55:07.449Z,60.28
2022-10-18T09:56:07.360Z,58.09
2022-10-18T09:57:07.439Z,60.88
2022-10-18T09:58:07.329Z,58.72
2022-10-18T09:59:07.481Z,58.38
2022-10-18T10:00:07.344Z,58.20
2022-10-18T10:01:07.392Z,59.33
2022-10-18T10:02:07.390Z,56.94
2022-10-18T10:03:07.325Z,60.34
2022-10-18T10:04:07.350Z,58.76
2022-10-18T10:05:07.332Z,61.16
2022-10-18T10:06:07.368Z,58.14
2022-10-18T10:07:07.283Z,60.68
2022-10-18T10:08:07.363Z,60.01
2022-10-18T10:09:07.246Z,59.39
2022-10-18T10:10:07.198Z,60.70
2022-10-18T10:11:07.167Z,58.89
2022-10-18T10:12:07.254Z,59.09
2022-10-18T10:13:07.267Z,57.83
2022-10-18T10:14:07.297Z,59.66
2022-10-18T10:15:07.223Z,60.86
2022-10-18T10:16:07.263Z,59.69
2022-10-18T10:17:07.207Z,60.83
2022-10-18T10:18:07.232Z,62.39
2022-10-18T10:19:07.186Z,61.03
2022-10-18T10:20:08.177Z,60.39
2022-10-18T10:21:07.295Z,62.36
2022-10-18T10:22:07.201Z,59.15
2022-10-18T10:23:07.278Z,57.27
2022-10-18T10:24:07.727Z,57.95
2022-10-18T10:25:07.075Z,58.15
2022-10-18T10:26:07.042Z,57.22
2022-10-18T10:27:07.173Z,58.46
2022-10-18T10:28:07.061Z,60.97
2022-10-18T10:29:13.233Z,58.40
2022-10-18T10:30:09.056Z,58.64
2022-10-18T10:31:07.013Z,60.34
2022-10-18T10:32:07.209Z,59.02
2022-10-18T10:33:07.169Z,58.70
2022-10-18T10:34:07.082Z,58.95
2022-10-18T10:35:10.028Z,57.62
2022-10-18T10:36:09.108Z,59.82
2022-10-18T10:37:07.080Z,58.97
2022-10-18T10:38:07.280Z,58.55
2022-10-18T10:39:07.098Z,57.02
2022-10-18T10:40:17.831Z,57.48
2022-10-18T10:41:08.933Z,56.35
2022-10-18T10:42:09.322Z,60.83
2022-10-18T10:43:19.600Z,58.76
2022-10-18T10:44:09.272Z,56.88
2022-10-18T10:45:06.924Z,57.71
2022-10-18T10:46:06.967Z,55.72
2022-10-18T10:47:07.057Z,56.01
2022-10-18T12:35:06.106Z,58.76
2022-10-18T12:36:06.178Z,57.12
2022-10-18T12:37:06.101Z,55.88
2022-10-18T12:38:06.090Z,56.32
2022-10-18T12:39:06.118Z,54.35
2022-10-18T12:40:12.138Z,57.25
2022-10-18T12:41:08.074Z,56.04
2022-10-18T12:42:06.109Z,55.39
2022-10-18T12:43:06.149Z,56.47
2022-10-18T12:44:06.439Z,54.76
2022-10-18T12:45:06.112Z,58.25
2022-10-18T12:46:10.761Z,56.15
2022-10-18T12:47:08.053Z,51.16
2022-10-18T12:48:06.217Z,54.86
2022-10-18T12:49:06.148Z,55.59
2022-10-18T12:50:06.226Z,52.73
2022-10-18T12:51:06.222Z,55.57
2022-10-18T12:52:06.065Z,54.84
2022-10-18T12:53:06.072Z,55.39
2022-10-18T12:54:06.071Z,56.98
2022-10-18T12:55:06.115Z,56.43
2022-10-18T12:56:06.054Z,55.56
2022-10-18T12:57:06.013Z,55.21
2022-10-18T12:58:06.012Z,55.72
2022-10-18T12:59:06.026Z,58.92
2022-10-18T13:00:05.969Z,58.22
2022-10-18T13:01:06.032Z,58.28
2022-10-18T13:02:06.044Z,59.38
2022-10-18T13:03:06.073Z,57.24
2022-10-18T13:04:06.032Z,58.31
2022-10-18T13:05:12.365Z,57.59
2022-10-18T13:06:07.910Z,56.46
2022-10-18T13:07:05.973Z,55.21
2022-10-18T13:08:05.960Z,58.96
2022-10-18T13:09:05.961Z,58.11
2022-10-18T13:10:05.998Z,59.50
2022-10-18T13:11:06.014Z,57.37
2022-10-18T13:12:05.947Z,59.36
2022-10-18T13:13:24.422Z,57.01
2022-10-18T13:14:07.853Z,58.64
2022-10-18T13:15:24.251Z,58.51
2022-10-18T13:16:07.892Z,58.36
2022-10-18T13:17:05.926Z,55.49
2022-10-18T13:18:05.954Z,54.44
2022-10-18T13:19:06.756Z,59.20
2022-10-18T13:20:24.975Z,62.13
2022-10-18T13:21:07.866Z,61.92
2022-10-18T13:22:05.813Z,61.52
2022-10-18T13:23:05.898Z,60.65
2022-10-18T13:24:05.834Z,60.16
2022-10-18T13:25:05.884Z,60.71
2022-10-18T13:26:05.816Z,59.98
2022-10-18T13:28:07.732Z,54.54
2022-10-18T13:29:05.887Z,57.18
2022-10-18T13:30:05.805Z,55.63
2022-10-18T13:31:05.771Z,56.23
2022-10-18T13:32:05.845Z,56.39
2022-10-18T13:33:05.862Z,51.22
2022-10-18T13:34:05.742Z,54.57
2022-10-18T13:35:05.734Z,56.56
2022-10-18T13:36:05.656Z,55.20
2022-10-18T13:37:05.667Z,56.71
2022-10-18T13:38:05.797Z,55.24
2022-10-18T13:39:05.661Z,55.20
2022-10-18T13:40:05.625Z,53.67
2022-10-18T13:41:05.737Z,51.83
2022-10-18T13:42:05.673Z,55.81
2022-10-18T13:43:05.670Z,51.20
2022-10-18T13:44:05.674Z,54.23
2022-10-18T13:45:05.719Z,54.79
2022-10-18T13:46:05.734Z,54.02
2022-10-18T13:49:13.537Z,53.28
2022-10-18T13:50:13.610Z,55.28
2022-10-18T13:51:13.640Z,53.03
2022-10-18T13:52:13.559Z,53.48
2022-10-18T13:53:13.566Z,54.83
2022-10-18T13:54:13.613Z,55.14
2022-10-18T13:55:13.567Z,57.15
2022-10-18T13:56:13.675Z,55.66
2022-10-18T13:57:13.512Z,54.24
2022-10-18T13:58:13.475Z,57.39
2022-10-18T13:59:14.800Z,55.83
2022-10-18T14:00:14.572Z,57.38
2022-10-18T14:01:14.395Z,57.32
2022-10-18T14:02:15.137Z,58.06
2022-10-18T14:03:27.070Z,58.08
2022-10-18T14:04:15.425Z,58.81
2022-10-18T14:05:24.703Z,60.17
2022-10-18T14:06:15.614Z,59.15
2022-10-18T14:07:13.470Z,55.03
2022-10-18T14:08:13.478Z,58.32
2022-10-18T14:09:25.562Z,59.23
2022-10-18T14:10:15.427Z,58.21
2022-10-18T14:11:13.394Z,58.52
2022-10-18T14:12:13.489Z,60.56
2022-10-18T14:13:13.417Z,62.04
2022-10-18T14:14:13.483Z,59.76
2022-10-18T14:15:13.375Z,58.73
2022-10-18T14:16:13.585Z,58.64
2022-10-18T14:17:17.783Z,58.26
2022-10-18T14:18:14.395Z,58.09
2022-10-18T14:19:13.345Z,58.44
2022-10-18T14:20:13.333Z,57.89
2022-10-18T14:21:15.384Z,58.14
2022-10-18T14:22:14.249Z,58.61
2022-10-18T14:23:14.260Z,57.27
2022-10-18T14:24:14.237Z,59.65
2022-10-18T14:25:13.208Z,58.52
2022-10-18T14:26:13.233Z,60.87
2022-10-18T14:27:13.487Z,58.87
2022-10-18T14:28:13.275Z,57.53
2022-10-18T14:29:13.467Z,57.24
2022-10-18T14:30:13.265Z,58.67
2022-10-18T14:31:13.359Z,59.10
2022-10-18T14:32:13.351Z,58.96
2022-10-18T14:33:13.329Z,57.40
2022-10-18T14:34:13.252Z,58.47
2022-10-18T14:36:15.848Z,59.22
2022-10-18T14:37:13.291Z,60.83
2022-10-18T14:38:13.366Z,60.90
2022-10-18T14:39:13.305Z,59.69
2022-10-18T14:40:13.206Z,61.36
2022-10-18T14:41:13.302Z,61.16
2022-10-18T14:42:13.461Z,58.97
2022-10-18T14:43:13.230Z,59.55
2022-10-18T14:44:13.192Z,58.16
2022-10-18T14:45:13.183Z,57.11